sensor_id;sensor_type;location;lat;lon;timestamp;P1;durP1;ratioP1;P2;durP2;ratioP2
74689;SDS011;63221;51.860;-2.188;2023-03-01T00:01:54;0.80;;;0.70;;
74689;SDS011;63221;51.860;-2.188;2023-03-01T00:04:19;0.57;;;0.30;;
74689;SDS011;63221;51.860;-2.188;2023-03-01T00:06:44;0.55;;;0.45;;
74689;SDS011;63221;51.860;-2.188;2023-03-01T00:09:13;0.40;;;0.30;;
74689;SDS011;63221;51.860;-2.188;2023-03-01T00:11:40;1.95;;;0.73;;
74689;SDS011;63221;51.860;-2.188;2023-03-01T00:14:06;1.75;;;0.60;;
74689;SDS011;63221;51.860;-2.188;2023-03-01T00:16:33;0.50;;;0.10;;
74689;SDS011;63221;51.860;-2.188;2023-03-01T00:19:00;2.00;;;0.60;;
74689;SDS011;63221;51.860;-2.188;2023-03-01T00:21:26;1.83;;;0.40;;
74689;SDS011;63221;51.860;-2.188;2023-03-01T00:23:52;0.88;;;0.63;;
74689;SDS011;63221;51.860;-2.188;2023-03-01T00:26:19;1.43;;;0.50;;
74689;SDS011;63221;51.860;-2.188;2023-03-01T00:28:46;0.88;;;0.10;;
74689;SDS011;63221;51.860;-2.188;2023-03-01T00:31:16;1.17;;;0.35;;
74689;SDS011;63221;51.860;-2.188;2023-03-01T00:33:43;2.25;;;0.20;;
74689;SDS011;63221;51.860;-2.188;2023-03-01T00:36:10;1.97;;;0.50;;
74689;SDS011;63221;51.860;-2.188;2023-03-01T00:38:38;1.00;;;0.32;;
74689;SDS011;63221;51.860;-2.188;2023-03-01T00:41:09;1.20;;;0.40;;
74689;SDS011;63221;51.860;-2.188;2023-03-01T00:43:36;1.92;;;0.38;;
74689;SDS011;63221;51.860;-2.188;2023-03-01T00:46:03;1.10;;;0.40;;
74689;SDS011;63221;51.860;-2.188;2023-03-01T00:48:29;0.60;;;0.37;;
74689;SDS011;63221;51.860;-2.188;2023-03-01T00:50:54;0.70;;;0.10;;
74689;SDS011;63221;51.860;-2.188;2023-03-01T00:53:20;1.57;;;0.40;;
74689;SDS011;63221;51.860;-2.188;2023-03-01T00:55:45;2.13;;;0.30;;
74689;SDS011;63221;51.860;-2.188;2023-03-01T00:58:11;1.90;;;0.53;;
74689;SDS011;63221;51.860;-2.188;2023-03-01T01:00:36;0.80;;;0.30;;
74689;SDS011;63221;51.860;-2.188;2023-03-01T01:03:01;0.65;;;0.22;;
74689;SDS011;63221;51.860;-2.188;2023-03-01T01:05:27;1.90;;;0.30;;
74689;SDS011;63221;51.860;-2.188;2023-03-01T01:07:52;0.70;;;0.40;;
74689;SDS011;63221;51.860;-2.188;2023-03-01T01:10:17;1.23;;;0.20;;
74689;SDS011;63221;51.860;-2.188;2023-03-01T01:12:44;1.40;;;0.40;;
74689;SDS011;63221;51.860;-2.188;2023-03-01T01:15:10;3.67;;;0.68;;
74689;SDS011;63221;51.860;-2.188;2023-03-01T01:17:38;1.80;;;0.30;;
74689;SDS011;63221;51.860;-2.188;2023-03-01T01:20:03;1.50;;;0.30;;
74689;SDS011;63221;51.860;-2.188;2023-03-01T01:22:29;0.95;;;0.30;;
74689;SDS011;63221;51.860;-2.188;2023-03-01T01:24:54;0.70;;;0.20;;
74689;SDS011;63221;51.860;-2.188;2023-03-01T01:27:20;1.80;;;0.27;;
74689;SDS011;63221;51.860;-2.188;2023-03-01T01:29:45;1.70;;;0.33;;
74689;SDS011;63221;51.860;-2.188;2023-03-01T01:32:10;2.10;;;0.60;;
74689;SDS011;63221;51.860;-2.188;2023-03-01T01:34:36;1.73;;;0.30;;
74689;SDS011;63221;51.860;-2.188;2023-03-01T01:37:01;0.70;;;0.30;;
74689;SDS011;63221;51.860;-2.188;2023-03-01T01:39:27;0.63;;;0.28;;
74689;SDS011;63221;51.860;-2.188;2023-03-01T01:41:53;1.10;;;0.60;;
74689;SDS011;63221;51.860;-2.188;2023-03-01T01:52:13;2.15;;;0.80;;
74689;SDS011;63221;51.860;-2.188;2023-03-01T01:55:03;4.80;;;0.82;;
74689;SDS011;63221;51.860;-2.188;2023-03-01T01:57:34;1.30;;;0.30;;
74689;SDS011;63221;51.860;-2.188;2023-03-01T02:00:05;2.30;;;0.50;;
74689;SDS011;63221;51.860;-2.188;2023-03-01T02:02:42;1.85;;;0.43;;
74689;SDS011;63221;51.860;-2.188;2023-03-01T02:05:21;1.55;;;0.73;;
74689;SDS011;63221;51.860;-2.188;2023-03-01T02:07:52;1.73;;;0.55;;
74689;SDS011;63221;51.860;-2.188;2023-03-01T02:10:17;2.00;;;0.43;;
74689;SDS011;63221;51.860;-2.188;2023-03-01T02:12:43;1.20;;;0.30;;
74689;SDS011;63221;51.860;-2.188;2023-03-01T02:15:09;1.63;;;0.73;;
74689;SDS011;63221;51.860;-2.188;2023-03-01T02:17:34;1.67;;;0.73;;
74689;SDS011;63221;51.860;-2.188;2023-03-01T02:22:35;1.13;;;0.75;;
74689;SDS011;63221;51.860;-2.188;2023-03-01T02:30:21;2.38;;;0.40;;
74689;SDS011;63221;51.860;-2.188;2023-03-01T02:32:47;2.00;;;0.60;;
74689;SDS011;63221;51.860;-2.188;2023-03-01T02:35:14;1.27;;;0.52;;
74689;SDS011;63221;51.860;-2.188;2023-03-01T02:37:41;1.20;;;0.60;;
74689;SDS011;63221;51.860;-2.188;2023-03-01T02:40:08;1.25;;;0.30;;
74689;SDS011;63221;51.860;-2.188;2023-03-01T02:42:40;3.47;;;1.02;;
74689;SDS011;63221;51.860;-2.188;2023-03-01T02:45:12;3.67;;;0.60;;
74689;SDS011;63221;51.860;-2.188;2023-03-01T02:47:38;1.73;;;0.60;;
74689;SDS011;63221;51.860;-2.188;2023-03-01T02:50:09;1.93;;;0.30;;
74689;SDS011;63221;51.860;-2.188;2023-03-01T02:56:04;1.30;;;0.57;;
74689;SDS011;63221;51.860;-2.188;2023-03-01T02:58:30;1.90;;;0.50;;
74689;SDS011;63221;51.860;-2.188;2023-03-01T03:00:55;2.50;;;0.50;;
74689;SDS011;63221;51.860;-2.188;2023-03-01T03:03:21;1.23;;;0.40;;
74689;SDS011;63221;51.860;-2.188;2023-03-01T03:05:47;1.97;;;0.60;;
74689;SDS011;63221;51.860;-2.188;2023-03-01T03:08:13;3.63;;;0.80;;
74689;SDS011;63221;51.860;-2.188;2023-03-01T03:10:41;1.63;;;0.90;;
74689;SDS011;63221;51.860;-2.188;2023-03-01T03:13:09;1.95;;;0.63;;
74689;SDS011;63221;51.860;-2.188;2023-03-01T03:15:36;1.43;;;0.80;;
74689;SDS011;63221;51.860;-2.188;2023-03-01T03:18:04;2.25;;;0.80;;
74689;SDS011;63221;51.860;-2.188;2023-03-01T03:20:33;2.65;;;1.05;;
74689;SDS011;63221;51.860;-2.188;2023-03-01T03:22:59;1.98;;;0.88;;
74689;SDS011;63221;51.860;-2.188;2023-03-01T03:25:24;2.13;;;0.50;;
74689;SDS011;63221;51.860;-2.188;2023-03-01T03:27:52;3.13;;;0.82;;
74689;SDS011;63221;51.860;-2.188;2023-03-01T03:30:22;3.30;;;0.65;;
74689;SDS011;63221;51.860;-2.188;2023-03-01T03:32:48;1.70;;;0.50;;
74689;SDS011;63221;51.860;-2.188;2023-03-01T03:35:27;1.95;;;0.98;;
74689;SDS011;63221;51.860;-2.188;2023-03-01T03:37:57;2.13;;;0.60;;
74689;SDS011;63221;51.860;-2.188;2023-03-01T03:40:27;2.80;;;0.65;;
74689;SDS011;63221;51.860;-2.188;2023-03-01T03:42:58;3.05;;;0.95;;
74689;SDS011;63221;51.860;-2.188;2023-03-01T03:45:23;2.07;;;0.50;;
74689;SDS011;63221;51.860;-2.188;2023-03-01T03:47:49;3.40;;;0.80;;
74689;SDS011;63221;51.860;-2.188;2023-03-01T03:50:15;4.05;;;0.50;;
74689;SDS011;63221;51.860;-2.188;2023-03-01T03:52:41;3.23;;;0.80;;
74689;SDS011;63221;51.860;-2.188;2023-03-01T03:55:08;2.75;;;0.77;;
74689;SDS011;63221;51.860;-2.188;2023-03-01T03:57:35;4.30;;;1.33;;
74689;SDS011;63221;51.860;-2.188;2023-03-01T04:00:05;3.57;;;1.40;;
74689;SDS011;63221;51.860;-2.188;2023-03-01T04:02:37;3.05;;;1.20;;
74689;SDS011;63221;51.860;-2.188;2023-03-01T04:05:04;2.78;;;0.85;;
74689;SDS011;63221;51.860;-2.188;2023-03-01T04:07:29;3.95;;;1.75;;
74689;SDS011;63221;51.860;-2.188;2023-03-01T04:09:55;2.60;;;1.03;;
74689;SDS011;63221;51.860;-2.188;2023-03-01T04:12:20;3.03;;;1.30;;
74689;SDS011;63221;51.860;-2.188;2023-03-01T04:14:48;3.05;;;0.60;;
74689;SDS011;63221;51.860;-2.188;2023-03-01T04:17:13;2.90;;;1.07;;
74689;SDS011;63221;51.860;-2.188;2023-03-01T04:19:38;2.83;;;0.80;;
74689;SDS011;63221;51.860;-2.188;2023-03-01T04:22:04;7.13;;;1.42;;
74689;SDS011;63221;51.860;-2.188;2023-03-01T04:24:37;3.42;;;1.17;;
74689;SDS011;63221;51.860;-2.188;2023-03-01T04:27:02;5.57;;;1.40;;
74689;SDS011;63221;51.860;-2.188;2023-03-01T04:29:28;2.70;;;1.00;;
74689;SDS011;63221;51.860;-2.188;2023-03-01T04:31:53;4.45;;;1.40;;
74689;SDS011;63221;51.860;-2.188;2023-03-01T04:34:19;4.73;;;1.20;;
74689;SDS011;63221;51.860;-2.188;2023-03-01T04:36:44;3.90;;;1.40;;
74689;SDS011;63221;51.860;-2.188;2023-03-01T04:39:10;5.97;;;1.07;;
74689;SDS011;63221;51.860;-2.188;2023-03-01T04:41:38;4.53;;;1.45;;
74689;SDS011;63221;51.860;-2.188;2023-03-01T04:44:05;5.28;;;1.55;;
74689;SDS011;63221;51.860;-2.188;2023-03-01T04:46:31;3.65;;;1.60;;
74689;SDS011;63221;51.860;-2.188;2023-03-01T04:48:56;4.23;;;1.57;;
74689;SDS011;63221;51.860;-2.188;2023-03-01T04:51:21;3.50;;;1.37;;
74689;SDS011;63221;51.860;-2.188;2023-03-01T04:53:47;4.20;;;1.00;;
74689;SDS011;63221;51.860;-2.188;2023-03-01T04:56:12;4.27;;;1.13;;
74689;SDS011;63221;51.860;-2.188;2023-03-01T04:58:43;2.88;;;0.90;;
74689;SDS011;63221;51.860;-2.188;2023-03-01T05:01:10;4.35;;;1.58;;
74689;SDS011;63221;51.860;-2.188;2023-03-01T05:03:40;4.63;;;1.63;;
74689;SDS011;63221;51.860;-2.188;2023-03-01T05:06:07;4.07;;;1.63;;
74689;SDS011;63221;51.860;-2.188;2023-03-01T05:08:32;3.40;;;0.90;;
74689;SDS011;63221;51.860;-2.188;2023-03-01T05:10:59;2.45;;;1.10;;
74689;SDS011;63221;51.860;-2.188;2023-03-01T05:13:24;2.87;;;0.90;;
74689;SDS011;63221;51.860;-2.188;2023-03-01T05:15:57;2.57;;;0.67;;
74689;SDS011;63221;51.860;-2.188;2023-03-01T05:18:23;1.63;;;0.63;;
74689;SDS011;63221;51.860;-2.188;2023-03-01T05:20:56;2.08;;;0.82;;
74689;SDS011;63221;51.860;-2.188;2023-03-01T05:23:29;3.80;;;0.60;;
74689;SDS011;63221;51.860;-2.188;2023-03-01T05:25:57;3.00;;;0.87;;
74689;SDS011;63221;51.860;-2.188;2023-03-01T05:28:23;4.90;;;0.88;;
74689;SDS011;63221;51.860;-2.188;2023-03-01T05:30:48;3.13;;;0.97;;
74689;SDS011;63221;51.860;-2.188;2023-03-01T05:33:16;2.05;;;0.60;;
74689;SDS011;63221;51.860;-2.188;2023-03-01T05:35:42;1.55;;;0.65;;
74689;SDS011;63221;51.860;-2.188;2023-03-01T05:38:09;3.77;;;0.93;;
74689;SDS011;63221;51.860;-2.188;2023-03-01T05:40:38;3.42;;;0.98;;
74689;SDS011;63221;51.860;-2.188;2023-03-01T05:43:04;2.15;;;0.57;;
74689;SDS011;63221;51.860;-2.188;2023-03-01T05:45:30;2.88;;;0.60;;
74689;SDS011;63221;51.860;-2.188;2023-03-01T05:47:57;2.87;;;0.80;;
74689;SDS011;63221;51.860;-2.188;2023-03-01T05:50:27;5.00;;;0.90;;
74689;SDS011;63221;51.860;-2.188;2023-03-01T05:53:04;2.97;;;0.90;;
74689;SDS011;63221;51.860;-2.188;2023-03-01T05:55:32;4.13;;;1.37;;
74689;SDS011;63221;51.860;-2.188;2023-03-01T05:57:59;5.13;;;1.05;;
74689;SDS011;63221;51.860;-2.188;2023-03-01T06:00:26;7.43;;;1.25;;
74689;SDS011;63221;51.860;-2.188;2023-03-01T06:02:53;4.43;;;1.13;;
74689;SDS011;63221;51.860;-2.188;2023-03-01T06:05:19;3.20;;;0.93;;
74689;SDS011;63221;51.860;-2.188;2023-03-01T06:07:44;3.47;;;0.63;;
74689;SDS011;63221;51.860;-2.188;2023-03-01T06:10:10;5.93;;;0.60;;
74689;SDS011;63221;51.860;-2.188;2023-03-01T06:12:37;4.10;;;1.00;;
74689;SDS011;63221;51.860;-2.188;2023-03-01T06:15:04;5.45;;;0.80;;
74689;SDS011;63221;51.860;-2.188;2023-03-01T06:17:31;4.43;;;1.00;;
74689;SDS011;63221;51.860;-2.188;2023-03-01T06:19:58;4.20;;;1.00;;
74689;SDS011;63221;51.860;-2.188;2023-03-01T06:22:23;5.07;;;1.30;;
74689;SDS011;63221;51.860;-2.188;2023-03-01T06:24:49;2.90;;;1.27;;
74689;SDS011;63221;51.860;-2.188;2023-03-01T06:27:14;4.32;;;1.75;;
74689;SDS011;63221;51.860;-2.188;2023-03-01T06:29:40;3.13;;;1.40;;
74689;SDS011;63221;51.860;-2.188;2023-03-01T06:32:06;4.70;;;1.53;;
74689;SDS011;63221;51.860;-2.188;2023-03-01T06:34:33;4.83;;;1.07;;
74689;SDS011;63221;51.860;-2.188;2023-03-01T06:36:58;4.53;;;1.55;;
74689;SDS011;63221;51.860;-2.188;2023-03-01T06:39:23;4.23;;;2.00;;
74689;SDS011;63221;51.860;-2.188;2023-03-01T06:41:49;6.47;;;1.30;;
74689;SDS011;63221;51.860;-2.188;2023-03-01T06:44:14;3.00;;;1.20;;
74689;SDS011;63221;51.860;-2.188;2023-03-01T06:46:40;4.28;;;1.13;;
74689;SDS011;63221;51.860;-2.188;2023-03-01T06:49:05;6.47;;;1.63;;
74689;SDS011;63221;51.860;-2.188;2023-03-01T06:51:34;6.40;;;1.58;;
74689;SDS011;63221;51.860;-2.188;2023-03-01T06:54:01;4.77;;;1.10;;
74689;SDS011;63221;51.860;-2.188;2023-03-01T06:56:26;6.38;;;1.48;;
74689;SDS011;63221;51.860;-2.188;2023-03-01T06:58:52;3.50;;;1.57;;
74689;SDS011;63221;51.860;-2.188;2023-03-01T07:01:17;6.80;;;1.53;;
74689;SDS011;63221;51.860;-2.188;2023-03-01T07:03:42;5.10;;;1.40;;
74689;SDS011;63221;51.860;-2.188;2023-03-01T07:06:09;5.72;;;1.83;;
74689;SDS011;63221;51.860;-2.188;2023-03-01T07:08:35;4.78;;;1.58;;
74689;SDS011;63221;51.860;-2.188;2023-03-01T07:11:00;5.27;;;1.20;;
74689;SDS011;63221;51.860;-2.188;2023-03-01T07:13:27;6.45;;;2.38;;
74689;SDS011;63221;51.860;-2.188;2023-03-01T07:15:53;3.40;;;1.20;;
74689;SDS011;63221;51.860;-2.188;2023-03-01T07:18:18;5.50;;;1.93;;
74689;SDS011;63221;51.860;-2.188;2023-03-01T07:20:43;6.30;;;1.90;;
74689;SDS011;63221;51.860;-2.188;2023-03-01T07:23:10;5.93;;;2.25;;
74689;SDS011;63221;51.860;-2.188;2023-03-01T07:25:35;6.53;;;2.60;;
74689;SDS011;63221;51.860;-2.188;2023-03-01T07:28:00;6.32;;;2.42;;
74689;SDS011;63221;51.860;-2.188;2023-03-01T07:30:26;5.00;;;1.63;;
74689;SDS011;63221;51.860;-2.188;2023-03-01T07:32:53;6.88;;;2.70;;
74689;SDS011;63221;51.860;-2.188;2023-03-01T07:35:22;6.10;;;1.87;;
74689;SDS011;63221;51.860;-2.188;2023-03-01T07:37:48;6.80;;;2.30;;
74689;SDS011;63221;51.860;-2.188;2023-03-01T07:40:14;4.97;;;2.40;;
74689;SDS011;63221;51.860;-2.188;2023-03-01T07:42:39;4.85;;;1.65;;
74689;SDS011;63221;51.860;-2.188;2023-03-01T07:45:05;7.33;;;2.07;;
74689;SDS011;63221;51.860;-2.188;2023-03-01T07:47:31;5.22;;;2.00;;
74689;SDS011;63221;51.860;-2.188;2023-03-01T07:49:57;5.35;;;1.75;;
74689;SDS011;63221;51.860;-2.188;2023-03-01T07:52:22;5.40;;;1.73;;
74689;SDS011;63221;51.860;-2.188;2023-03-01T07:54:48;4.20;;;1.63;;
74689;SDS011;63221;51.860;-2.188;2023-03-01T07:57:13;8.25;;;1.98;;
74689;SDS011;63221;51.860;-2.188;2023-03-01T07:59:39;6.20;;;1.90;;
74689;SDS011;63221;51.860;-2.188;2023-03-01T08:02:05;7.40;;;2.47;;
74689;SDS011;63221;51.860;-2.188;2023-03-01T08:04:31;6.65;;;2.40;;
74689;SDS011;63221;51.860;-2.188;2023-03-01T08:06:57;8.45;;;2.30;;
74689;SDS011;63221;51.860;-2.188;2023-03-01T08:09:23;7.63;;;2.30;;
74689;SDS011;63221;51.860;-2.188;2023-03-01T08:11:48;7.53;;;2.33;;
74689;SDS011;63221;51.860;-2.188;2023-03-01T08:14:14;8.03;;;2.60;;
74689;SDS011;63221;51.860;-2.188;2023-03-01T08:16:39;9.60;;;3.03;;
74689;SDS011;63221;51.860;-2.188;2023-03-01T08:19:08;8.43;;;3.60;;
74689;SDS011;63221;51.860;-2.188;2023-03-01T08:21:35;9.73;;;2.85;;
74689;SDS011;63221;51.860;-2.188;2023-03-01T08:24:01;6.97;;;2.38;;
74689;SDS011;63221;51.860;-2.188;2023-03-01T08:26:30;7.53;;;3.20;;
74689;SDS011;63221;51.860;-2.188;2023-03-01T08:28:56;6.60;;;3.10;;
74689;SDS011;63221;51.860;-2.188;2023-03-01T08:31:40;5.90;;;2.90;;
74689;SDS011;63221;51.860;-2.188;2023-03-01T08:34:10;7.70;;;3.65;;
74689;SDS011;63221;51.860;-2.188;2023-03-01T08:36:38;6.78;;;3.17;;
74689;SDS011;63221;51.860;-2.188;2023-03-01T08:39:05;5.82;;;2.70;;
74689;SDS011;63221;51.860;-2.188;2023-03-01T08:41:31;4.10;;;1.95;;
74689;SDS011;63221;51.860;-2.188;2023-03-01T08:43:57;3.87;;;1.47;;
74689;SDS011;63221;51.860;-2.188;2023-03-01T08:46:29;3.33;;;1.38;;
74689;SDS011;63221;51.860;-2.188;2023-03-01T08:48:56;3.88;;;1.38;;
74689;SDS011;63221;51.860;-2.188;2023-03-01T08:51:22;4.20;;;1.37;;
74689;SDS011;63221;51.860;-2.188;2023-03-01T08:53:48;3.47;;;1.50;;
74689;SDS011;63221;51.860;-2.188;2023-03-01T08:56:13;4.33;;;2.00;;
74689;SDS011;63221;51.860;-2.188;2023-03-01T08:58:39;5.28;;;1.75;;
74689;SDS011;63221;51.860;-2.188;2023-03-01T09:01:11;4.50;;;1.87;;
74689;SDS011;63221;51.860;-2.188;2023-03-01T09:03:38;5.72;;;1.63;;
74689;SDS011;63221;51.860;-2.188;2023-03-01T09:06:05;5.82;;;1.50;;
74689;SDS011;63221;51.860;-2.188;2023-03-01T09:08:35;6.15;;;2.00;;
74689;SDS011;63221;51.860;-2.188;2023-03-01T09:11:05;5.53;;;1.50;;
74689;SDS011;63221;51.860;-2.188;2023-03-01T09:13:32;6.95;;;1.83;;
74689;SDS011;63221;51.860;-2.188;2023-03-01T09:15:58;3.97;;;2.13;;
74689;SDS011;63221;51.860;-2.188;2023-03-01T09:18:24;5.17;;;2.43;;
74689;SDS011;63221;51.860;-2.188;2023-03-01T09:20:50;4.82;;;1.65;;
74689;SDS011;63221;51.860;-2.188;2023-03-01T09:23:15;4.57;;;1.27;;
74689;SDS011;63221;51.860;-2.188;2023-03-01T09:25:40;5.60;;;2.43;;
74689;SDS011;63221;51.860;-2.188;2023-03-01T09:28:06;3.53;;;1.23;;
74689;SDS011;63221;51.860;-2.188;2023-03-01T09:30:31;4.43;;;1.75;;
74689;SDS011;63221;51.860;-2.188;2023-03-01T09:32:57;4.97;;;1.87;;
74689;SDS011;63221;51.860;-2.188;2023-03-01T09:35:22;4.17;;;1.20;;
74689;SDS011;63221;51.860;-2.188;2023-03-01T09:37:48;4.18;;;1.63;;
74689;SDS011;63221;51.860;-2.188;2023-03-01T09:40:19;3.80;;;1.10;;
74689;SDS011;63221;51.860;-2.188;2023-03-01T09:42:48;4.43;;;1.58;;
74689;SDS011;63221;51.860;-2.188;2023-03-01T09:47:50;5.10;;;1.30;;
74689;SDS011;63221;51.860;-2.188;2023-03-01T09:50:18;5.40;;;1.70;;
74689;SDS011;63221;51.860;-2.188;2023-03-01T09:52:53;4.20;;;1.65;;
74689;SDS011;63221;51.860;-2.188;2023-03-01T09:55:29;3.07;;;1.00;;
74689;SDS011;63221;51.860;-2.188;2023-03-01T09:57:55;3.53;;;1.33;;
74689;SDS011;63221;51.860;-2.188;2023-03-01T10:00:38;5.60;;;0.95;;
74689;SDS011;63221;51.860;-2.188;2023-03-01T10:11:23;5.47;;;0.90;;
74689;SDS011;63221;51.860;-2.188;2023-03-01T10:16:27;2.72;;;0.82;;
74689;SDS011;63221;51.860;-2.188;2023-03-01T10:19:00;6.50;;;1.30;;
74689;SDS011;63221;51.860;-2.188;2023-03-01T10:21:27;6.13;;;1.40;;
74689;SDS011;63221;51.860;-2.188;2023-03-01T10:23:56;4.40;;;1.33;;
74689;SDS011;63221;51.860;-2.188;2023-03-01T10:26:36;4.47;;;1.38;;
74689;SDS011;63221;51.860;-2.188;2023-03-01T10:29:28;4.25;;;1.08;;
74689;SDS011;63221;51.860;-2.188;2023-03-01T10:31:56;8.27;;;1.50;;
74689;SDS011;63221;51.860;-2.188;2023-03-01T10:34:32;2.90;;;0.80;;
74689;SDS011;63221;51.860;-2.188;2023-03-01T10:37:13;4.53;;;1.95;;
74689;SDS011;63221;51.860;-2.188;2023-03-01T10:45:27;4.83;;;1.50;;
74689;SDS011;63221;51.860;-2.188;2023-03-01T10:50:49;4.05;;;1.85;;
74689;SDS011;63221;51.860;-2.188;2023-03-01T10:53:20;3.85;;;1.60;;
74689;SDS011;63221;51.860;-2.188;2023-03-01T10:56:04;4.75;;;1.65;;
74689;SDS011;63221;51.860;-2.188;2023-03-01T10:58:32;4.33;;;1.80;;
74689;SDS011;63221;51.860;-2.188;2023-03-01T11:01:32;5.72;;;2.40;;
74689;SDS011;63221;51.860;-2.188;2023-03-01T11:06:36;3.95;;;1.55;;
74689;SDS011;63221;51.860;-2.188;2023-03-01T11:09:19;5.75;;;2.38;;
74689;SDS011;63221;51.860;-2.188;2023-03-01T11:11:46;5.33;;;1.87;;
74689;SDS011;63221;51.860;-2.188;2023-03-01T11:14:21;5.72;;;2.70;;
74689;SDS011;63221;51.860;-2.188;2023-03-01T11:16:48;4.63;;;2.33;;
74689;SDS011;63221;51.860;-2.188;2023-03-01T11:19:23;5.45;;;2.60;;
74689;SDS011;63221;51.860;-2.188;2023-03-01T11:24:29;5.90;;;2.43;;
74689;SDS011;63221;51.860;-2.188;2023-03-01T11:26:57;4.63;;;1.95;;
74689;SDS011;63221;51.860;-2.188;2023-03-01T11:32:07;7.35;;;2.00;;
74689;SDS011;63221;51.860;-2.188;2023-03-01T11:37:38;4.03;;;1.30;;
74689;SDS011;63221;51.860;-2.188;2023-03-01T11:42:48;3.92;;;1.67;;
74689;SDS011;63221;51.860;-2.188;2023-03-01T11:45:17;5.60;;;1.88;;
74689;SDS011;63221;51.860;-2.188;2023-03-01T11:47:51;3.42;;;1.50;;
74689;SDS011;63221;51.860;-2.188;2023-03-01T12:01:36;5.72;;;2.10;;
74689;SDS011;63221;51.860;-2.188;2023-03-01T12:07:10;4.45;;;1.85;;
74689;SDS011;63221;51.860;-2.188;2023-03-01T12:26:33;7.28;;;1.75;;
74689;SDS011;63221;51.860;-2.188;2023-03-01T12:42:11;6.47;;;1.65;;
74689;SDS011;63221;51.860;-2.188;2023-03-01T12:50:41;3.95;;;1.75;;
74689;SDS011;63221;51.860;-2.188;2023-03-01T12:53:28;3.83;;;1.98;;
74689;SDS011;63221;51.860;-2.188;2023-03-01T12:55:59;3.55;;;1.88;;
74689;SDS011;63221;51.860;-2.188;2023-03-01T12:58:38;2.93;;;1.20;;
74689;SDS011;63221;51.860;-2.188;2023-03-01T13:11:51;4.20;;;2.13;;
74689;SDS011;63221;51.860;-2.188;2023-03-01T13:16:51;5.72;;;2.00;;
74689;SDS011;63221;51.860;-2.188;2023-03-01T13:19:24;3.13;;;0.97;;
74689;SDS011;63221;51.860;-2.188;2023-03-01T13:21:51;3.67;;;1.65;;
74689;SDS011;63221;51.860;-2.188;2023-03-01T13:29:52;2.95;;;1.17;;
74689;SDS011;63221;51.860;-2.188;2023-03-01T13:32:23;4.27;;;1.10;;
74689;SDS011;63221;51.860;-2.188;2023-03-01T13:34:59;5.18;;;1.50;;
74689;SDS011;63221;51.860;-2.188;2023-03-01T13:37:27;2.83;;;1.42;;
74689;SDS011;63221;51.860;-2.188;2023-03-01T13:39:55;3.13;;;1.10;;
74689;SDS011;63221;51.860;-2.188;2023-03-01T13:42:45;3.08;;;0.98;;
74689;SDS011;63221;51.860;-2.188;2023-03-01T13:45:17;4.77;;;1.40;;
74689;SDS011;63221;51.860;-2.188;2023-03-01T13:47:45;3.83;;;1.10;;
74689;SDS011;63221;51.860;-2.188;2023-03-01T13:50:18;2.78;;;0.98;;
74689;SDS011;63221;51.860;-2.188;2023-03-01T13:53:04;3.50;;;0.68;;
74689;SDS011;63221;51.860;-2.188;2023-03-01T13:55:40;1.63;;;1.00;;
74689;SDS011;63221;51.860;-2.188;2023-03-01T13:58:24;2.80;;;1.00;;
74689;SDS011;63221;51.860;-2.188;2023-03-01T14:00:55;5.85;;;1.23;;
74689;SDS011;63221;51.860;-2.188;2023-03-01T14:03:22;4.15;;;1.75;;
74689;SDS011;63221;51.860;-2.188;2023-03-01T14:06:04;6.07;;;1.52;;
74689;SDS011;63221;51.860;-2.188;2023-03-01T14:08:33;5.28;;;1.65;;
74689;SDS011;63221;51.860;-2.188;2023-03-01T14:19:58;5.40;;;1.90;;
74689;SDS011;63221;51.860;-2.188;2023-03-01T14:22:27;4.00;;;1.80;;
74689;SDS011;63221;51.860;-2.188;2023-03-01T14:25:15;4.93;;;1.87;;
74689;SDS011;63221;51.860;-2.188;2023-03-01T14:27:59;4.60;;;2.33;;
74689;SDS011;63221;51.860;-2.188;2023-03-01T14:30:33;4.43;;;1.88;;
74689;SDS011;63221;51.860;-2.188;2023-03-01T14:33:01;7.45;;;2.17;;
74689;SDS011;63221;51.860;-2.188;2023-03-01T14:35:35;6.47;;;2.05;;
74689;SDS011;63221;51.860;-2.188;2023-03-01T14:38:01;7.73;;;1.80;;
74689;SDS011;63221;51.860;-2.188;2023-03-01T14:40:28;3.75;;;1.88;;
74689;SDS011;63221;51.860;-2.188;2023-03-01T14:42:56;5.63;;;2.13;;
74689;SDS011;63221;51.860;-2.188;2023-03-01T14:45:24;6.57;;;2.15;;
74689;SDS011;63221;51.860;-2.188;2023-03-01T14:47:51;3.00;;;1.75;;
74689;SDS011;63221;51.860;-2.188;2023-03-01T14:52:46;3.20;;;1.42;;
74689;SDS011;63221;51.860;-2.188;2023-03-01T14:55:15;3.55;;;1.95;;
74689;SDS011;63221;51.860;-2.188;2023-03-01T14:57:43;4.63;;;1.73;;
74689;SDS011;63221;51.860;-2.188;2023-03-01T15:00:10;3.00;;;1.77;;
74689;SDS011;63221;51.860;-2.188;2023-03-01T15:02:43;4.00;;;1.63;;
74689;SDS011;63221;51.860;-2.188;2023-03-01T15:05:09;2.97;;;1.75;;
74689;SDS011;63221;51.860;-2.188;2023-03-01T15:07:42;3.47;;;1.17;;
74689;SDS011;63221;51.860;-2.188;2023-03-01T15:10:21;2.90;;;1.25;;
74689;SDS011;63221;51.860;-2.188;2023-03-01T15:12:48;5.05;;;1.45;;
74689;SDS011;63221;51.860;-2.188;2023-03-01T15:15:33;3.83;;;1.63;;
74689;SDS011;63221;51.860;-2.188;2023-03-01T15:18:00;2.92;;;1.55;;
74689;SDS011;63221;51.860;-2.188;2023-03-01T15:20:28;4.45;;;1.42;;
74689;SDS011;63221;51.860;-2.188;2023-03-01T15:22:55;3.78;;;1.63;;
74689;SDS011;63221;51.860;-2.188;2023-03-01T15:25:23;6.72;;;1.38;;
74689;SDS011;63221;51.860;-2.188;2023-03-01T15:27:51;3.53;;;1.10;;
74689;SDS011;63221;51.860;-2.188;2023-03-01T15:30:19;3.67;;;0.95;;
74689;SDS011;63221;51.860;-2.188;2023-03-01T15:33:15;4.70;;;1.40;;
74689;SDS011;63221;51.860;-2.188;2023-03-01T15:35:44;4.00;;;1.50;;
74689;SDS011;63221;51.860;-2.188;2023-03-01T15:41:02;3.47;;;1.03;;
74689;SDS011;63221;51.860;-2.188;2023-03-01T15:43:45;3.85;;;1.23;;
74689;SDS011;63221;51.860;-2.188;2023-03-01T15:49:04;3.00;;;0.98;;
74689;SDS011;63221;51.860;-2.188;2023-03-01T15:51:32;2.13;;;1.15;;
74689;SDS011;63221;51.860;-2.188;2023-03-01T15:53:59;2.67;;;0.90;;
74689;SDS011;63221;51.860;-2.188;2023-03-01T15:56:27;3.72;;;1.02;;
74689;SDS011;63221;51.860;-2.188;2023-03-01T15:58:52;1.50;;;0.80;;
74689;SDS011;63221;51.860;-2.188;2023-03-01T16:01:17;5.15;;;1.30;;
74689;SDS011;63221;51.860;-2.188;2023-03-01T16:03:43;3.33;;;0.93;;
74689;SDS011;63221;51.860;-2.188;2023-03-01T16:06:10;3.55;;;1.02;;
74689;SDS011;63221;51.860;-2.188;2023-03-01T16:08:37;2.00;;;0.90;;
74689;SDS011;63221;51.860;-2.188;2023-03-01T16:11:03;2.47;;;0.70;;
74689;SDS011;63221;51.860;-2.188;2023-03-01T16:13:31;5.18;;;0.60;;
74689;SDS011;63221;51.860;-2.188;2023-03-01T16:15:57;3.03;;;1.58;;
74689;SDS011;63221;51.860;-2.188;2023-03-01T16:18:23;3.90;;;1.08;;
74689;SDS011;63221;51.860;-2.188;2023-03-01T16:20:49;2.07;;;0.87;;
74689;SDS011;63221;51.860;-2.188;2023-03-01T16:23:14;4.13;;;1.05;;
74689;SDS011;63221;51.860;-2.188;2023-03-01T16:25:40;2.67;;;1.30;;
74689;SDS011;63221;51.860;-2.188;2023-03-01T16:28:05;1.63;;;0.93;;
74689;SDS011;63221;51.860;-2.188;2023-03-01T16:30:36;2.50;;;0.85;;
74689;SDS011;63221;51.860;-2.188;2023-03-01T16:33:02;1.95;;;0.68;;
74689;SDS011;63221;51.860;-2.188;2023-03-01T16:35:31;2.47;;;0.70;;
74689;SDS011;63221;51.860;-2.188;2023-03-01T16:37:57;7.32;;;1.05;;
74689;SDS011;63221;51.860;-2.188;2023-03-01T16:40:26;4.32;;;1.52;;
74689;SDS011;63221;51.860;-2.188;2023-03-01T16:42:52;2.53;;;0.93;;
74689;SDS011;63221;51.860;-2.188;2023-03-01T16:45:20;1.70;;;1.00;;
74689;SDS011;63221;51.860;-2.188;2023-03-01T16:47:46;2.33;;;1.00;;
74689;SDS011;63221;51.860;-2.188;2023-03-01T16:50:11;2.20;;;1.37;;
74689;SDS011;63221;51.860;-2.188;2023-03-01T16:52:37;3.90;;;1.23;;
74689;SDS011;63221;51.860;-2.188;2023-03-01T16:55:03;2.40;;;1.05;;
74689;SDS011;63221;51.860;-2.188;2023-03-01T16:57:30;3.50;;;2.13;;
74689;SDS011;63221;51.860;-2.188;2023-03-01T16:59:55;4.57;;;1.97;;
74689;SDS011;63221;51.860;-2.188;2023-03-01T17:02:21;4.83;;;2.30;;